Time;durP1;ratioP1;P1;durP2;ratioP2;P2;SDS_P1;SDS_P2;PMS_P1;PMS_P2;Temp;Humidity;BMP_temperature;BMP_pressure;BME280_temperature;BME280_humidity;BME280_pressure;Samples;Min_cycle;Max_cycle;Signal;HPM_P1;HPM_P2
2022/07/08 00:01:09;;;;;;;1999.90;999.90;;;;;;;15.49;100.00;92791.94;5034240;28;20248;-57
2022/07/08 00:03:35;;;;;;;1999.90;999.90;;;;;;;15.52;100.00;92799.22;5034232;28;20196;-52
2022/07/08 00:06:00;;;;;;;1999.90;999.90;;;;;;;15.55;100.00;92820.22;5034224;28;20216;-51
2022/07/08 00:08:27;;;;;;;1999.90;999.90;;;;;;;15.51;100.00;92831.44;5033934;28;20236;-51
2022/07/08 00:10:53;;;;;;;1999.90;999.90;;;;;;;15.56;100.00;92844.47;5034253;28;20248;-59
2022/07/08 00:13:18;;;;;;;1999.90;999.90;;;;;;;15.61;100.00;92859.47;5034616;28;20186;-63
2022/07/08 00:15:44;;;;;;;1999.90;999.90;;;;;;;15.65;100.00;92868.25;5035154;28;20225;-63
2022/07/08 00:18:09;;;;;;;1999.90;999.90;;;;;;;15.66;100.00;92875.28;5034213;28;20190;-62
2022/07/08 00:20:34;;;;;;;1999.90;999.90;;;;;;;15.66;100.00;92881.50;5034103;28;20203;-62
2022/07/08 00:23:00;;;;;;;1999.90;999.90;;;;;;;15.67;100.00;92874.75;5033924;28;20193;-62
2022/07/08 00:25:25;;;;;;;1999.90;999.90;;;;;;;15.67;100.00;92874.75;5033760;28;20190;-63
2022/07/08 00:27:51;;;;;;;1999.90;999.90;;;;;;;15.65;100.00;92869.00;5035062;28;20167;-64
2022/07/08 00:30:17;;;;;;;1999.90;999.90;;;;;;;15.62;100.00;92883.00;5033763;28;20184;-49
2022/07/08 00:32:42;;;;;;;1999.90;999.90;;;;;;;15.62;100.00;92874.72;5033000;28;20180;-64
2022/07/08 00:35:08;;;;;;;1999.90;999.90;;;;;;;15.61;100.00;92873.25;5033790;28;20179;-64
2022/07/08 00:37:34;;;;;;;1999.90;999.90;;;;;;;15.65;100.00;92882.00;5033569;28;20182;-61
2022/07/08 00:39:59;;;;;;;1999.90;999.90;;;;;;;15.63;100.00;92892.78;5033860;28;20178;-62
2022/07/08 00:42:24;;;;;;;1999.90;999.90;;;;;;;15.68;100.00;92890.03;5033788;28;20178;-62
2022/07/08 00:44:50;;;;;;;1999.90;999.90;;;;;;;15.68;100.00;92894.78;5034321;28;20205;-62
2022/07/08 00:47:15;;;;;;;1999.90;999.90;;;;;;;15.65;100.00;92913.03;5033947;28;20206;-63
2022/07/08 00:49:41;;;;;;;1999.90;999.90;;;;;;;15.62;100.00;92927.78;5034261;28;20244;-59
2022/07/08 00:52:14;;;;;;;1999.90;999.90;;;;;;;15.68;100.00;92708.41;5194671;27;20307;-57
2022/07/08 00:54:39;;;;;;;1999.90;999.90;;;;;;;15.68;100.00;92738.69;5154525;27;20209;-57
2022/07/08 00:57:05;;;;;;;1999.90;999.90;;;;;;;15.67;100.00;92759.19;5154754;27;20192;-57
2022/07/08 00:59:31;;;;;;;1999.90;999.90;;;;;;;15.69;100.00;92784.22;5155060;27;20182;-58
2022/07/08 01:01:57;;;;;;;1999.90;999.90;;;;;;;15.74;100.00;92799.22;5154474;27;20170;-57
2022/07/08 01:04:22;;;;;;;1999.90;999.90;;;;;;;15.73;100.00;92826.00;5154982;27;20213;-58
2022/07/08 01:06:48;;;;;;;1999.90;999.90;;;;;;;15.75;100.00;92820.75;5154614;27;20186;-53
2022/07/08 01:09:16;;;;;;;1999.90;999.90;;;;;;;15.73;100.00;92836.22;5154314;27;20293;-58
2022/07/08 01:11:45;;;;;;;1999.90;999.90;;;;;;;15.69;100.00;92841.22;5154735;27;20274;-59
2022/07/08 01:14:10;;;;;;;1999.90;999.90;;;;;;;15.68;100.00;92850.75;5172694;27;20182;-58
2022/07/08 01:16:36;;;;;;;1999.90;999.90;;;;;;;15.70;100.00;92854.50;5154337;27;20254;-58
2022/07/08 01:19:01;;;;;;;1999.90;999.90;;;;;;;15.68;100.00;92862.50;5152320;27;20276;-58
2022/07/08 01:21:27;;;;;;;1999.90;999.90;;;;;;;15.73;100.00;92875.53;5133719;27;20190;-59
2022/07/08 01:23:52;;;;;;;1999.90;999.90;;;;;;;15.69;100.00;92899.78;5134043;27;20187;-62
2022/07/08 01:26:18;;;;;;;1999.90;999.90;;;;;;;15.73;100.00;92897.53;5134008;27;20186;-63
2022/07/08 01:28:44;;;;;;;1999.90;999.90;;;;;;;15.76;100.00;92913.06;5133906;27;20189;-63
2022/07/08 01:31:09;;;;;;;1999.90;999.90;;;;;;;15.77;100.00;92920.06;5133312;27;20293;-63
2022/07/08 01:33:35;;;;;;;1999.90;999.90;;;;;;;15.77;100.00;92942.06;5133674;27;20196;-64
2022/07/08 01:36:00;;;;;;;1999.90;999.90;;;;;;;15.80;100.00;92957.59;5133350;27;20235;-63
2022/07/08 01:38:25;;;;;;;1999.90;999.90;;;;;;;15.85;100.00;92965.13;5133201;27;20193;-62
2022/07/08 01:40:51;;;;;;;1999.90;999.90;;;;;;;15.84;100.00;92985.63;5133156;27;20228;-62
2022/07/08 01:43:17;;;;;;;1999.90;999.90;;;;;;;15.83;100.00;93011.66;5133283;27;20227;-60
2022/07/08 01:45:42;;;;;;;1999.90;999.90;;;;;;;15.85;100.00;93044.94;5133039;27;20190;-62
2022/07/08 01:48:08;;;;;;;1999.90;999.90;;;;;;;15.81;100.00;93058.19;5133137;27;20250;-61
2022/07/08 01:50:33;;;;;;;1999.90;999.90;;;;;;;15.83;100.00;93061.22;5133045;27;20206;-63
2022/07/08 01:52:59;;;;;;;1999.90;999.90;;;;;;;15.83;100.00;93076.97;5151599;27;20191;-62
2022/07/08 01:55:25;;;;;;;1999.90;999.90;;;;;;;15.82;100.00;93108.50;5132735;27;20266;-62
2022/07/08 01:57:50;;;;;;;1999.90;999.90;;;;;;;15.83;100.00;93121.00;5133365;27;20311;-62
2022/07/08 02:00:16;;;;;;;1999.90;999.90;;;;;;;15.83;100.00;93135.53;5133014;27;20214;-63
2022/07/08 02:02:42;;;;;;;1999.90;999.90;;;;;;;15.90;100.00;93159.09;5124262;28;20247;-62
2022/07/08 02:05:09;;;;;;;1999.90;999.90;;;;;;;15.87;100.00;93191.09;5118914;28;20190;-63
2022/07/08 02:07:35;;;;;;;1999.90;999.90;;;;;;;15.92;100.00;93201.38;5118897;28;20222;-64
2022/07/08 02:10:01;;;;;;;1999.90;999.90;;;;;;;15.92;100.00;93206.91;5118874;28;20194;-63
2022/07/08 02:12:26;;;;;;;1999.90;999.90;;;;;;;15.88;100.00;93214.63;5119078;28;20183;-63
2022/07/08 02:15:03;;;;;;;1999.90;999.90;;;;;;;15.87;100.00;93210.38;5119190;28;20277;-63
2022/07/08 02:17:40;;;;;;;1999.90;999.90;;;;;;;15.87;100.00;93242.66;5119386;28;20175;-63
2022/07/08 02:20:09;;;;;;;1999.90;999.90;;;;;;;15.87;100.00;93270.94;5119261;28;20238;-61
2022/07/08 02:22:34;;;;;;;1999.90;999.90;;;;;;;15.79;100.00;93294.66;5118920;28;20175;-61
2022/07/08 02:25:00;;;;;;;1999.90;999.90;;;;;;;15.76;100.00;93331.41;5118794;28;20190;-61
2022/07/08 02:27:26;;;;;;;1999.90;999.90;;;;;;;15.76;100.00;93355.41;5118936;28;20187;-61
2022/07/08 02:29:51;;;;;;;1999.90;999.90;;;;;;;15.65;100.00;93405.59;5118741;28;20330;-61
2022/07/08 02:32:17;;;;;;;1999.90;999.90;;;;;;;15.58;100.00;93427.25;5118682;28;20190;-61
2022/07/08 02:34:43;;;;;;;1999.90;999.90;;;;;;;15.64;100.00;93444.59;5118685;28;20194;-61
2022/07/08 02:37:09;;;;;;;1999.90;999.90;;;;;;;15.59;100.00;93481.06;5118603;28;20646;-61
2022/07/08 02:39:34;;;;;;;1999.90;999.90;;;;;;;15.48;100.00;93544.22;5118669;28;20183;-63
2022/07/08 02:41:59;;;;;;;1999.90;999.90;;;;;;;15.43;100.00;93584.16;5118980;28;20207;-63
2022/07/08 02:44:25;;;;;;;1999.90;999.90;;;;;;;15.42;100.00;93610.16;5118567;28;20224;-63
2022/07/08 02:46:50;;;;;;;1999.90;999.90;;;;;;;15.29;100.00;93628.94;5118194;28;20175;-63
2022/07/08 02:49:16;;;;;;;1999.90;999.90;;;;;;;15.16;100.00;93642.19;5118422;28;20206;-63
2022/07/08 02:51:41;;;;;;;1999.90;999.90;;;;;;;15.00;100.00;93653.69;5118073;28;20206;-62
2022/07/08 02:54:06;;;;;;;1999.90;999.90;;;;;;;14.87;100.00;93652.44;5118234;28;20231;-62
2022/07/08 02:56:33;;;;;;;1999.90;999.90;;;;;;;14.93;100.00;93632.06;5118240;28;20187;-61
2022/07/08 02:59:00;;;;;;;1999.90;999.90;;;;;;;14.96;100.00;93597.38;5118381;28;20246;-61
2022/07/08 03:01:25;;;;;;;1999.90;999.90;;;;;;;14.90;100.00;93591.78;5118049;28;20193;-61
2022/07/08 03:03:51;;;;;;;1999.90;999.90;;;;;;;14.92;100.00;93583.84;5118197;28;20183;-61
2022/07/08 03:06:16;;;;;;;1999.90;999.90;;;;;;;14.88;100.00;93572.28;5135998;28;20190;-62
2022/07/08 03:08:42;;;;;;;1999.90;999.90;;;;;;;14.76;100.00;93573.34;5118304;28;20187;-61
2022/07/08 03:11:07;;;;;;;1999.90;999.90;;;;;;;14.79;100.00;93568.88;5117865;28;20303;-60
2022/07/08 03:13:35;;;;;;;1999.90;999.90;;;;;;;14.74;100.00;93567.53;5117311;28;20179;-62
2022/07/08 03:16:01;;;;;;;1999.90;999.90;;;;;;;14.86;100.00;93558.22;5117747;28;20279;-63
2022/07/08 03:18:26;;;;;;;1999.90;999.90;;;;;;;14.80;100.00;93578.63;5117926;28;20218;-61
2022/07/08 03:20:52;;;;;;;1999.90;999.90;;;;;;;14.61;100.00;93679.69;5117245;28;20207;-62
2022/07/08 03:23:17;;;;;;;1999.90;999.90;;;;;;;14.52;100.00;93802.63;5117877;28;20190;-62
2022/07/08 03:25:42;;;;;;;1999.90;999.90;;;;;;;14.45;100.00;93913.63;5117999;28;20309;-62
2022/07/08 03:28:08;;;;;;;1999.90;999.90;;;;;;;14.40;100.00;93991.16;5117897;28;20182;-61
2022/07/08 03:30:33;;;;;;;1999.90;999.90;;;;;;;14.46;100.00;94041.50;5117731;28;20203;-63
2022/07/08 03:32:59;;;;;;;1999.90;999.90;;;;;;;14.47;100.00;94078.75;5118170;28;20183;-56
2022/07/08 03:35:24;;;;;;;1999.90;999.90;;;;;;;14.46;100.00;94151.38;5117982;28;20268;-60
2022/07/08 03:37:50;;;;;;;1999.90;999.90;;;;;;;14.41;100.00;94209.69;5117469;28;20201;-61
2022/07/08 03:43:00;;;;;;;1999.90;999.90;;;;;;;14.26;100.00;94304.88;5136063;28;20533;-61
2022/07/08 03:45:26;;;;;;;1999.90;999.90;;;;;;;14.18;100.00;94344.78;5117491;28;20191;-60
2022/07/08 03:47:51;;;;;;;1999.90;999.90;;;;;;;14.26;100.00;94362.53;5117900;28;20190;-61
2022/07/08 03:50:18;;;;;;;1999.90;999.90;;;;;;;14.22;100.00;94378.41;5117166;28;20203;-54
2022/07/08 03:52:45;;;;;;;1999.90;999.90;;;;;;;14.10;100.00;94403.94;5117630;28;20187;-60
2022/07/08 03:55:11;;;;;;;1999.90;999.90;;;;;;;14.17;100.00;94400.91;5117181;28;20190;-60
2022/07/08 03:57:36;;;;;;;1999.90;999.90;;;;;;;14.27;100.00;94394.28;5117588;28;20191;-60
2022/07/08 04:00:04;;;;;;;1999.90;999.90;;;;;;;14.28;100.00;94406.78;5117469;28;20244;-60
2022/07/08 04:02:29;;;;;;;1999.90;999.90;;;;;;;14.28;100.00;94426.00;5117437;28;20282;-61
2022/07/08 04:04:55;;;;;;;1999.90;999.90;;;;;;;14.24;100.00;94452.09;5117575;28;20290;-60
2022/07/08 04:07:20;;;;;;;1999.90;999.90;;;;;;;14.21;100.00;94475.69;5117149;28;20191;-60
2022/07/08 04:09:45;;;;;;;1999.90;999.90;;;;;;;14.17;100.00;94491.50;5117127;28;20183;-62
2022/07/08 04:12:11;;;;;;;1999.90;999.90;;;;;;;14.20;100.00;94507.09;5116971;28;20207;-55
2022/07/08 04:14:37;;;;;;;1999.90;999.90;;;;;;;14.25;100.00;94498.34;5116905;28;20278;-55
2022/07/08 04:17:03;;;;;;;1999.90;999.90;;;;;;;14.38;100.00;94479.78;5117107;28;20206;-56
2022/07/08 04:19:28;;;;;;;1999.90;999.90;;;;;;;14.38;100.00;94479.78;5116758;28;20202;-56
2022/07/08 04:21:54;;;;;;;1999.90;999.90;;;;;;;14.33;100.00;94482.34;5117279;28;20186;-54
2022/07/08 04:24:19;;;;;;;1999.90;999.90;;;;;;;14.14;100.00;94525.38;5116901;28;20195;-55
2022/07/08 04:26:44;;;;;;;1999.90;999.90;;;;;;;14.18;100.00;94553.47;5116545;28;20190;-57
2022/07/08 04:29:10;;;;;;;1999.90;999.90;;;;;;;14.09;100.00;94577.38;5117008;28;20195;-55
2022/07/08 04:31:35;;;;;;;1999.90;999.90;;;;;;;14.19;100.00;94587.97;5116689;28;20225;-61
2022/07/08 04:34:01;;;;;;;1999.90;999.90;;;;;;;14.33;100.00;94601.22;5116769;28;20286;-60
2022/07/08 04:36:26;;;;;;;1999.90;999.90;;;;;;;14.44;100.00;94587.88;5116854;28;20183;-61
2022/07/08 04:38:52;;;;;;;1999.90;999.90;;;;;;;14.46;100.00;94585.44;5116388;28;20179;-62
2022/07/08 04:41:17;;;;;;;1999.90;999.90;;;;;;;14.51;100.00;94575.84;5116708;28;20175;-61
2022/07/08 04:43:45;;;;;;;1999.90;999.90;;;;;;;14.53;100.00;94579.69;5116462;28;20187;-61
2022/07/08 04:46:12;;;;;;;1999.90;999.90;;;;;;;14.60;100.00;94573.94;5116369;28;20182;-62
2022/07/08 04:48:37;;;;;;;1999.90;999.90;;;;;;;14.54;100.00;94586.75;5116129;28;20187;-52
2022/07/08 04:51:03;;;;;;;1999.90;999.90;;;;;;;14.56;100.00;94608.25;5116771;28;20199;-52
2022/07/08 04:53:28;;;;;;;1999.90;999.90;;;;;;;14.46;100.00;94645.88;5116454;28;20195;-51
2022/07/08 04:55:53;;;;;;;1999.90;999.90;;;;;;;14.41;100.00;94665.69;5116674;28;20191;-54
2022/07/08 04:58:19;;;;;;;1999.90;999.90;;;;;;;14.53;100.00;94673.13;5116865;28;20214;-59
2022/07/08 05:00:44;;;;;;;1999.90;999.90;;;;;;;14.53;100.00;94670.38;5116262;28;20237;-53
2022/07/08 05:03:10;;;;;;;1999.90;999.90;;;;;;;14.31;100.00;94716.25;5116675;28;20269;-51
2022/07/08 05:05:35;;;;;;;1999.90;999.90;;;;;;;14.48;100.00;94741.59;5116420;28;20179;-52
2022/07/08 05:08:01;;;;;;;1999.90;999.90;;;;;;;14.57;100.00;94760.94;5116663;28;20195;-56
2022/07/08 05:10:27;;;;;;;1999.90;999.90;;;;;;;14.65;100.00;94795.22;5116212;28;20206;-56
2022/07/08 05:12:54;;;;;;;1999.90;999.90;;;;;;;14.94;100.00;94812.28;5116336;28;20183;-56
2022/07/08 05:15:20;;;;;;;1999.90;999.90;;;;;;;15.00;100.00;94844.25;5116461;28;20279;-56
2022/07/08 05:17:46;;;;;;;1999.90;999.90;;;;;;;15.31;100.00;94864.41;5115943;28;20248;-54
2022/07/08 05:20:12;;;;;;;1999.90;999.90;;;;;;;15.43;100.00;94904.13;5115897;28;20238;-57
2022/07/08 05:22:37;;;;;;;1999.90;999.90;;;;;;;15.44;100.00;94931.19;5116754;28;20184;-64
2022/07/08 05:25:04;;;;;;;1999.90;999.90;;;;;;;15.53;100.00;94944.25;5116684;28;20183;-61
2022/07/08 05:27:29;;;;;;;1999.90;999.90;;;;;;;15.52;100.00;94989.53;5115789;28;20194;-61
2022/07/08 05:29:55;;;;;;;1999.90;999.90;;;;;;;15.60;100.00;94997.09;5115908;28;20187;-63
2022/07/08 05:32:20;;;;;;;1999.90;999.90;;;;;;;15.77;100.00;95023.25;5116384;28;20187;-64
2022/07/08 05:34:45;;;;;;;1999.90;999.90;;;;;;;15.73;100.00;95041.88;5116192;28;20214;-66
2022/07/08 05:37:11;;;;;;;1999.90;999.90;;;;;;;15.75;100.00;95058.72;5116983;28;20184;-64
2022/07/08 05:39:38;;;;;;;1999.90;999.90;;;;;;;15.83;100.00;95081.28;5119490;28;20287;-65
2022/07/08 05:42:04;;;;;;;1999.90;999.90;;;;;;;15.77;100.00;95083.81;5137469;28;20190;-63
2022/07/08 05:44:30;;;;;;;1999.90;999.90;;;;;;;15.91;100.00;95083.34;5119351;28;20183;-61
2022/07/08 05:46:55;;;;;;;1999.90;999.90;;;;;;;15.96;100.00;95107.56;5118865;28;20179;-64
2022/07/08 05:49:20;;;;;;;1999.90;999.90;;;;;;;16.52;100.00;95115.13;5119285;28;20193;-63
2022/07/08 05:51:46;;;;;;;1999.90;999.90;;;;;;;16.73;100.00;95186.06;5119003;28;20210;-63
2022/07/08 05:54:11;;;;;;;1999.90;999.90;;;;;;;17.76;100.00;95218.50;5119051;28;20171;-62
2022/07/08 05:56:36;;;;;;;1999.90;999.90;;;;;;;18.89;100.00;95275.56;5118912;28;20187;-63
2022/07/08 05:59:02;;;;;;;1999.90;999.90;;;;;;;19.84;100.00;95396.88;5119321;28;20190;-62
2022/07/08 06:01:27;;;;;;;1999.90;999.90;;;;;;;20.80;100.00;95536.41;5119303;28;20194;-66
2022/07/08 06:03:53;;;;;;;1999.90;999.90;;;;;;;20.99;100.00;95668.50;5119688;28;20185;-58
2022/07/08 06:06:18;;;;;;;1999.90;999.90;;;;;;;21.88;100.00;95733.53;5119032;28;20183;-59
2022/07/08 06:08:43;;;;;;;1999.90;999.90;;;;;;;22.53;100.00;96125.44;5118792;28;20191;-59
2022/07/08 06:11:09;;;;;;;1999.90;999.90;;;;;;;22.71;100.00;96152.53;5118870;28;20217;-58
2022/07/08 06:13:34;;;;;;;1999.90;999.90;;;;;;;23.16;94.19;96178.38;5118866;28;20183;-57
2022/07/08 06:15:59;;;;;;;1999.90;999.90;;;;;;;22.77;88.60;96200.81;5118902;28;20241;-59
2022/07/08 06:18:25;;;;;;;1999.90;999.90;;;;;;;23.18;81.71;96244.81;5118918;28;20187;-65
2022/07/08 06:20:51;;;;;;;1999.90;999.90;;;;;;;24.27;78.69;96282.50;5118487;28;20243;-59
2022/07/08 06:23:16;;;;;;;1999.90;999.90;;;;;;;24.61;75.29;96323.97;5118479;28;20218;-59
2022/07/08 06:25:41;;;;;;;1999.90;999.90;;;;;;;25.43;67.75;96361.47;5118623;28;20190;-59
2022/07/08 06:28:07;;;;;;;1999.90;999.90;;;;;;;24.71;69.53;96367.44;5119078;28;20190;-58
2022/07/08 06:30:32;;;;;;;1999.90;999.90;;;;;;;24.76;65.94;96386.34;5136503;28;20203;-58
2022/07/08 06:32:59;;;;;;;1999.90;999.90;;;;;;;24.22;67.58;96387.22;5118451;28;20187;-57
2022/07/08 06:35:26;;;;;;;1999.90;999.90;;;;;;;24.22;68.57;96386.47;5118690;28;20187;-64
2022/07/08 06:37:52;;;;;;;1999.90;999.90;;;;;;;23.78;69.71;96393.63;5118491;28;20189;-65
2022/07/08 06:40:19;;;;;;;1999.90;999.90;;;;;;;23.95;71.67;96389.28;5118490;28;20183;-66
2022/07/08 06:42:47;;;;;;;1999.90;999.90;;;;;;;23.13;74.37;96384.81;5118370;28;20187;-65
2022/07/08 06:45:12;;;;;;;1999.90;999.90;;;;;;;23.44;73.12;96396.66;5118484;28;20182;-65
2022/07/08 06:47:37;;;;;;;1999.90;999.90;;;;;;;23.96;72.06;96393.66;5118229;28;20174;-64
2022/07/08 06:50:05;;;;;;;1999.90;999.90;;;;;;;25.13;65.85;96413.66;5118352;28;20193;-62
2022/07/08 06:52:31;;;;;;;1999.90;999.90;;;;;;;25.34;62.97;96414.69;5118196;28;20190;-63
2022/07/08 06:54:57;;;;;;;1999.90;999.90;;;;;;;25.21;56.71;96430.91;5118169;28;20183;-61
2022/07/08 06:57:22;;;;;;;1999.90;999.90;;;;;;;25.64;56.82;96430.38;5136699;28;20171;-54
2022/07/08 06:59:48;;;;;;;1999.90;999.90;;;;;;;26.41;54.53;96428.38;5118962;28;20213;-54
2022/07/08 07:02:13;;;;;;;1999.90;999.90;;;;;;;25.60;54.80;96434.59;5118045;28;20179;-54
2022/07/08 07:04:39;;;;;;;1999.90;999.90;;;;;;;26.67;52.65;96441.38;5118436;28;20182;-54
2022/07/08 07:07:04;;;;;;;1999.90;999.90;;;;;;;27.10;50.43;96446.16;5117808;28;20278;-53
2022/07/08 07:09:30;;;;;;;1999.90;999.90;;;;;;;27.03;49.12;96452.19;5118049;28;20182;-54
2022/07/08 07:11:55;;;;;;;1999.90;999.90;;;;;;;25.86;49.13;96449.66;5117995;28;20206;-54
2022/07/08 07:14:20;;;;;;;1999.90;999.90;;;;;;;26.60;47.69;96440.97;5118065;28;20190;-62
2022/07/08 07:16:46;;;;;;;1999.90;999.90;;;;;;;26.87;47.01;96444.25;5118177;28;20185;-58
2022/07/08 07:19:11;;;;;;;1999.90;999.90;;;;;;;26.01;50.52;96445.69;5118034;27;20195;-58
2022/07/08 07:21:37;;;;;;;1999.90;999.90;;;;;;;26.58;48.86;96444.22;5118054;28;20245;-58
2022/07/08 07:24:03;;;;;;;1999.90;999.90;;;;;;;25.86;52.20;96450.44;5117639;28;20206;-58
2022/07/08 07:26:28;;;;;;;1999.90;999.90;;;;;;;26.31;51.33;96447.28;5118113;28;20201;-57
2022/07/08 07:28:54;;;;;;;1999.90;999.90;;;;;;;25.16;54.07;96448.31;5118659;28;20179;-58
2022/07/08 07:31:20;;;;;;;1999.90;999.90;;;;;;;23.85;59.79;96451.91;5117809;28;20234;-62
2022/07/08 07:33:45;;;;;;;1999.90;999.90;;;;;;;22.82;67.37;96448.16;5117911;28;20190;-57
2022/07/08 07:36:10;;;;;;;1999.90;999.90;;;;;;;21.74;74.26;96446.16;5117723;28;20179;-58
2022/07/08 07:38:36;;;;;;;1999.90;999.90;;;;;;;21.18;81.07;96442.47;5118246;28;20284;-57
2022/07/08 07:41:01;;;;;;;1999.90;999.90;;;;;;;21.27;83.29;96431.44;5117592;28;20175;-58
2022/07/08 07:43:27;;;;;;;1999.90;999.90;;;;;;;20.71;86.99;96427.69;5117689;28;20190;-58
2022/07/08 07:45:52;;;;;;;1999.90;999.90;;;;;;;20.50;91.58;96399.81;5117712;28;20178;-57
2022/07/08 07:48:18;;;;;;;1999.90;999.90;;;;;;;20.27;95.99;96370.34;5117430;28;20260;-56
2022/07/08 07:50:43;;;;;;;1999.90;999.90;;;;;;;20.15;96.72;96362.78;5117468;28;20271;-63
2022/07/08 07:53:09;;;;;;;1999.90;999.90;;;;;;;20.14;97.08;96358.44;5117622;28;20190;-62
2022/07/08 07:55:34;;;;;;;1999.90;999.90;;;;;;;20.05;100.00;96330.56;5117136;28;20194;-62
2022/07/08 07:58:00;;;;;;;1999.90;999.90;;;;;;;19.81;100.00;96347.94;5117108;28;20183;-62
2022/07/08 08:00:26;;;;;;;1999.90;999.90;;;;;;;19.75;100.00;96333.03;5116693;28;20194;-62
2022/07/08 08:02:52;;;;;;;1999.90;999.90;;;;;;;18.98;100.00;96331.13;5135360;28;20183;-62
2022/07/08 08:05:18;;;;;;;1999.90;999.90;;;;;;;19.18;100.00;96308.88;5135525;28;20194;-62
2022/07/08 08:07:43;;;;;;;1999.90;999.90;;;;;;;19.41;100.00;96314.19;5135279;28;20183;-56
2022/07/08 08:10:11;;;;;;;1999.90;999.90;;;;;;;19.26;100.00;96321.34;5117080;28;20603;-63
2022/07/08 08:12:36;;;;;;;1999.90;999.90;;;;;;;18.90;100.00;96317.91;5135167;28;20179;-63
2022/07/08 08:15:02;;;;;;;1999.90;999.90;;;;;;;18.81;100.00;96326.06;5117363;28;20519;-64
2022/07/08 08:17:27;;;;;;;1999.90;999.90;;;;;;;18.78;100.00;96305.56;5117048;28;20191;-63
2022/07/08 08:19:52;;;;;;;1999.90;999.90;;;;;;;18.94;100.00;96307.53;5116978;28;20206;-63
2022/07/08 08:22:18;;;;;;;1999.90;999.90;;;;;;;18.55;100.00;96318.81;5116844;28;20186;-63
2022/07/08 08:24:43;;;;;;;1999.90;999.90;;;;;;;18.55;100.00;96316.03;5117281;28;20207;-63
2022/07/08 08:27:08;;;;;;;1999.90;999.90;;;;;;;18.77;100.00;96300.47;5116896;28;20312;-58
2022/07/08 08:29:34;;;;;;;1999.90;999.90;;;;;;;18.98;100.00;96308.22;5116620;28;20221;-51
2022/07/08 08:32:00;;;;;;;1999.90;999.90;;;;;;;19.20;100.00;96320.31;5116922;28;20219;-51
2022/07/08 08:34:26;;;;;;;1999.90;999.90;;;;;;;19.35;100.00;96327.81;5116441;28;20194;-52
2022/07/08 08:36:52;;;;;;;1999.90;999.90;;;;;;;19.42;100.00;96343.47;5116982;28;20231;-51
2022/07/08 08:39:17;;;;;;;1999.90;999.90;;;;;;;19.69;100.00;96340.34;5116436;28;20288;-53
2022/07/08 08:41:43;;;;;;;1999.90;999.90;;;;;;;19.68;100.00;96355.41;5116663;28;20189;-53
2022/07/08 08:44:09;;;;;;;1999.90;999.90;;;;;;;19.97;100.00;96350.63;5116508;28;20206;-62
2022/07/08 08:46:35;;;;;;;1999.90;999.90;;;;;;;20.18;100.00;96352.81;5116512;28;20187;-61
2022/07/08 08:49:01;;;;;;;1999.90;999.90;;;;;;;20.04;100.00;96361.50;5116624;28;20251;-62
2022/07/08 08:51:30;;;;;;;1999.90;999.90;;;;;;;19.73;100.00;96368.75;5116573;28;20207;-61
2022/07/08 08:53:58;;;;;;;1999.90;999.90;;;;;;;19.71;100.00;96355.34;5116272;28;20650;-62
2022/07/08 08:56:25;;;;;;;1999.90;999.90;;;;;;;19.92;100.00;96359.50;5134529;28;20198;-62
2022/07/08 08:58:53;;;;;;;1999.90;999.90;;;;;;;19.76;100.00;96368.66;5116481;28;20187;-61
2022/07/08 09:01:19;;;;;;;1999.90;999.90;;;;;;;19.51;100.00;96348.41;5116500;28;20187;-61
2022/07/08 09:03:45;;;;;;;1999.90;999.90;;;;;;;19.43;100.00;96353.34;5116776;28;20205;-63
2022/07/08 09:06:11;;;;;;;1999.90;999.90;;;;;;;19.60;100.00;96348.53;5116737;28;20240;-62
2022/07/08 09:08:37;;;;;;;1999.90;999.90;;;;;;;19.51;100.00;96356.72;5116132;28;20195;-62
2022/07/08 09:11:03;;;;;;;1999.90;999.90;;;;;;;19.72;100.00;96370.75;5134347;27;20282;-62
2022/07/08 09:13:29;;;;;;;1999.90;999.90;;;;;;;19.88;100.00;96381.75;5118911;28;20328;-62
2022/07/08 09:15:59;;;;;;;1999.90;999.90;;;;;;;20.05;100.00;96380.50;5119624;28;20207;-60
2022/07/08 09:18:30;;;;;;;1999.90;999.90;;;;;;;19.89;100.00;96388.88;5119694;28;20256;-60
2022/07/08 09:20:57;;;;;;;1999.90;999.90;;;;;;;20.19;100.00;96376.56;5118947;28;20203;-62
2022/07/08 09:23:26;;;;;;;1999.90;999.90;;;;;;;20.29;100.00;96392.88;5119499;28;20187;-57
2022/07/08 09:25:54;;;;;;;1999.90;999.90;;;;;;;20.37;100.00;96402.56;5119808;28;20191;-58
2022/07/08 09:28:33;;;;;;;1999.90;999.90;;;;;;;20.50;100.00;96411.66;5119264;28;20183;-58
2022/07/08 09:31:00;;;;;;;1999.90;999.90;;;;;;;20.58;100.00;96409.47;5137504;28;20215;-58
2022/07/08 09:33:27;;;;;;;1999.90;999.90;;;;;;;20.71;100.00;96411.03;5119539;28;20191;-58
2022/07/08 09:35:55;;;;;;;1999.90;999.90;;;;;;;20.25;100.00;96411.63;5119543;28;20282;-57
2022/07/08 09:38:22;;;;;;;1999.90;999.90;;;;;;;20.20;100.00;96401.06;5119739;28;20185;-56
2022/07/08 09:40:56;;;;;;;1999.90;999.90;;;;;;;20.12;100.00;96405.28;5119831;28;20245;-56
2022/07/08 09:43:22;;;;;;;1999.90;999.90;;;;;;;20.23;100.00;96400.19;5119501;28;20183;-56
2022/07/08 09:45:48;;;;;;;1999.90;999.90;;;;;;;20.32;100.00;96405.88;5119640;28;20244;-56
2022/07/08 09:48:13;;;;;;;1999.90;999.90;;;;;;;20.03;98.97;96427.28;5119864;28;20179;-56
2022/07/08 09:50:41;;;;;;;1999.90;999.90;;;;;;;19.94;100.00;96413.28;5119166;28;20207;-55
2022/07/08 09:53:15;;;;;;;1999.90;999.90;;;;;;;20.21;100.00;96419.28;5119374;28;20183;-55
2022/07/08 09:55:47;;;;;;;1999.90;999.90;;;;;;;20.66;98.02;96422.69;5119466;28;20201;-55
2022/07/08 09:58:13;;;;;;;1999.90;999.90;;;;;;;21.10;92.60;96443.16;5119907;28;20194;-60
2022/07/08 10:00:40;;;;;;;1999.90;999.90;;;;;;;21.15;89.23;96450.91;5119421;28;20195;-61
2022/07/08 10:03:05;;;;;;;1999.90;999.90;;;;;;;21.75;85.10;96460.84;5119479;28;20179;-63
2022/07/08 10:05:31;;;;;;;1999.90;999.90;;;;;;;21.78;84.42;96459.97;5119351;28;20201;-63
2022/07/08 10:07:57;;;;;;;1999.90;999.90;;;;;;;22.39;84.39;96460.91;5119007;28;20260;-65
2022/07/08 10:10:24;;;;;;;1999.90;999.90;;;;;;;23.06;78.19;96463.16;5119216;28;20191;-65
2022/07/08 10:12:52;;;;;;;1999.90;999.90;;;;;;;23.20;77.85;96470.94;5118863;28;20187;-63
2022/07/08 10:15:20;;;;;;;1999.90;999.90;;;;;;;23.48;74.16;96475.38;5118899;28;20185;-63
2022/07/08 10:17:48;;;;;;;1999.90;999.90;;;;;;;23.56;72.71;96473.88;5119499;28;20183;-58
2022/07/08 10:20:16;;;;;;;1999.90;999.90;;;;;;;23.51;71.04;96482.84;5136959;27;20198;-62
2022/07/08 10:22:46;;;;;;;1999.90;999.90;;;;;;;23.21;74.70;96469.69;5118466;27;20190;-61
2022/07/08 10:25:12;;;;;;;1999.90;999.90;;;;;;;23.08;75.36;96460.69;5119179;28;20179;-61
2022/07/08 10:27:38;;;;;;;1999.90;999.90;;;;;;;22.85;74.74;96469.53;5118581;28;20186;-61
2022/07/08 10:30:16;;;;;;;1999.90;999.90;;;;;;;22.33;77.08;96462.69;5118632;28;20247;-62
2022/07/08 10:32:45;;;;;;;1999.90;999.90;;;;;;;22.22;78.76;96467.88;5119094;28;20209;-62
2022/07/08 10:35:17;;;;;;;1999.90;999.90;;;;;;;22.70;77.19;96471.31;5118896;28;20236;-62
2022/07/08 10:37:51;;;;;;;1999.90;999.90;;;;;;;24.04;72.33;96475.84;5118119;28;20183;-58
2022/07/08 10:40:38;;;;;;;1999.90;999.90;;;;;;;24.33;69.45;96481.72;5136879;28;20534;-58
2022/07/08 10:43:18;;;;;;;1999.90;999.90;;;;;;;25.31;65.45;96493.94;5118235;28;20195;-56
2022/07/08 10:46:16;;;;;;;1999.90;999.90;;;;;;;24.05;67.55;96480.16;5118886;28;20194;-56
2022/07/08 10:48:43;;;;;;;1999.90;999.90;;;;;;;23.55;70.58;96477.88;5118458;28;20183;-55